sensor_id;sensor_type;location;lat;lon;timestamp;P1;durP1;ratioP1;P2;durP2;ratioP2
40489;SDS011;26196;52.302;10.572;2023-11-19T00:00:44;0.57;;;0.28;;
40489;SDS011;26196;52.302;10.572;2023-11-19T00:04:44;2.25;;;0.30;;
40489;SDS011;26196;52.302;10.572;2023-11-19T00:08:45;0.40;;;0.20;;
40489;SDS011;26196;52.302;10.572;2023-11-19T00:12:46;0.10;;;0.10;;
40489;SDS011;26196;52.302;10.572;2023-11-19T00:16:47;0.10;;;0.10;;
40489;SDS011;26196;52.302;10.572;2023-11-19T00:20:47;0.20;;;0.20;;
40489;SDS011;26196;52.302;10.572;2023-11-19T00:24:47;0.20;;;0.20;;
40489;SDS011;26196;52.302;10.572;2023-11-19T00:28:48;0.20;;;0.20;;
40489;SDS011;26196;52.302;10.572;2023-11-19T00:32:48;0.20;;;0.20;;
40489;SDS011;26196;52.302;10.572;2023-11-19T00:36:49;0.63;;;0.30;;
40489;SDS011;26196;52.302;10.572;2023-11-19T00:40:49;0.50;;;0.10;;
40489;SDS011;26196;52.302;10.572;2023-11-19T00:44:53;0.70;;;0.15;;
40489;SDS011;26196;52.302;10.572;2023-11-19T00:48:53;0.63;;;0.10;;
40489;SDS011;26196;52.302;10.572;2023-11-19T00:52:53;0.37;;;0.20;;
40489;SDS011;26196;52.302;10.572;2023-11-19T00:56:54;0.45;;;0.17;;
40489;SDS011;26196;52.302;10.572;2023-11-19T01:00:55;0.20;;;0.20;;
40489;SDS011;26196;52.302;10.572;2023-11-19T01:04:57;0.30;;;0.20;;
40489;SDS011;26196;52.302;10.572;2023-11-19T01:08:57;0.73;;;0.13;;
40489;SDS011;26196;52.302;10.572;2023-11-19T01:12:58;0.30;;;0.20;;
40489;SDS011;26196;52.302;10.572;2023-11-19T01:16:58;0.17;;;0.17;;
40489;SDS011;26196;52.302;10.572;2023-11-19T01:20:59;0.32;;;0.20;;
40489;SDS011;26196;52.302;10.572;2023-11-19T01:24:59;0.75;;;0.20;;
40489;SDS011;26196;52.302;10.572;2023-11-19T01:29:00;1.55;;;0.20;;
40489;SDS011;26196;52.302;10.572;2023-11-19T01:33:01;1.42;;;0.20;;
40489;SDS011;26196;52.302;10.572;2023-11-19T01:37:01;0.10;;;0.10;;
40489;SDS011;26196;52.302;10.572;2023-11-19T01:41:01;0.30;;;0.30;;
40489;SDS011;26196;52.302;10.572;2023-11-19T01:45:03;0.10;;;0.10;;
40489;SDS011;26196;52.302;10.572;2023-11-19T01:49:06;0.57;;;0.10;;
40489;SDS011;26196;52.302;10.572;2023-11-19T01:53:07;0.10;;;0.10;;
40489;SDS011;26196;52.302;10.572;2023-11-19T01:57:07;0.43;;;0.20;;
40489;SDS011;26196;52.302;10.572;2023-11-19T02:01:09;0.45;;;0.20;;
40489;SDS011;26196;52.302;10.572;2023-11-19T02:05:11;0.45;;;0.10;;
40489;SDS011;26196;52.302;10.572;2023-11-19T02:09:12;0.20;;;0.10;;
40489;SDS011;26196;52.302;10.572;2023-11-19T02:13:13;0.75;;;0.10;;
40489;SDS011;26196;52.302;10.572;2023-11-19T02:17:26;0.10;;;0.10;;
40489;SDS011;26196;52.302;10.572;2023-11-19T02:21:27;0.10;;;0.10;;
40489;SDS011;26196;52.302;10.572;2023-11-19T02:25:31;0.13;;;0.13;;
40489;SDS011;26196;52.302;10.572;2023-11-19T02:29:33;0.15;;;0.15;;
40489;SDS011;26196;52.302;10.572;2023-11-19T02:33:35;0.50;;;0.10;;
40489;SDS011;26196;52.302;10.572;2023-11-19T02:37:39;0.40;;;0.20;;
40489;SDS011;26196;52.302;10.572;2023-11-19T02:41:39;0.97;;;0.20;;
40489;SDS011;26196;52.302;10.572;2023-11-19T02:45:39;0.30;;;0.20;;
40489;SDS011;26196;52.302;10.572;2023-11-19T02:49:40;0.65;;;0.30;;
40489;SDS011;26196;52.302;10.572;2023-11-19T02:53:40;0.40;;;0.30;;
40489;SDS011;26196;52.302;10.572;2023-11-19T02:57:41;1.02;;;0.40;;
40489;SDS011;26196;52.302;10.572;2023-11-19T03:01:51;0.80;;;0.40;;
40489;SDS011;26196;52.302;10.572;2023-11-19T03:05:52;0.70;;;0.30;;
40489;SDS011;26196;52.302;10.572;2023-11-19T03:09:52;1.35;;;0.80;;
40489;SDS011;26196;52.302;10.572;2023-11-19T03:13:54;0.98;;;0.30;;
40489;SDS011;26196;52.302;10.572;2023-11-19T03:17:54;1.53;;;0.40;;
40489;SDS011;26196;52.302;10.572;2023-11-19T03:21:54;0.52;;;0.20;;
40489;SDS011;26196;52.302;10.572;2023-11-19T03:25:55;1.00;;;0.40;;
40489;SDS011;26196;52.302;10.572;2023-11-19T03:29:55;1.27;;;0.35;;
40489;SDS011;26196;52.302;10.572;2023-11-19T03:33:55;0.25;;;0.20;;
40489;SDS011;26196;52.302;10.572;2023-11-19T03:37:56;0.70;;;0.23;;
40489;SDS011;26196;52.302;10.572;2023-11-19T03:41:56;0.82;;;0.43;;
40489;SDS011;26196;52.302;10.572;2023-11-19T03:45:56;1.20;;;0.40;;
40489;SDS011;26196;52.302;10.572;2023-11-19T03:49:57;1.73;;;0.43;;
40489;SDS011;26196;52.302;10.572;2023-11-19T03:53:57;0.70;;;0.40;;
40489;SDS011;26196;52.302;10.572;2023-11-19T03:57:57;0.67;;;0.30;;
40489;SDS011;26196;52.302;10.572;2023-11-19T04:01:58;1.08;;;0.60;;
40489;SDS011;26196;52.302;10.572;2023-11-19T04:06:00;0.52;;;0.20;;
40489;SDS011;26196;52.302;10.572;2023-11-19T04:10:00;0.50;;;0.20;;
40489;SDS011;26196;52.302;10.572;2023-11-19T04:14:01;0.17;;;0.17;;
40489;SDS011;26196;52.302;10.572;2023-11-19T04:18:02;0.55;;;0.20;;
40489;SDS011;26196;52.302;10.572;2023-11-19T04:22:03;0.20;;;0.20;;
40489;SDS011;26196;52.302;10.572;2023-11-19T04:26:03;0.20;;;0.10;;
40489;SDS011;26196;52.302;10.572;2023-11-19T04:30:04;0.65;;;0.10;;
40489;SDS011;26196;52.302;10.572;2023-11-19T04:34:10;0.53;;;0.10;;
40489;SDS011;26196;52.302;10.572;2023-11-19T04:38:11;0.20;;;0.20;;
40489;SDS011;26196;52.302;10.572;2023-11-19T04:42:11;0.43;;;0.20;;
40489;SDS011;26196;52.302;10.572;2023-11-19T04:46:12;0.25;;;0.20;;
40489;SDS011;26196;52.302;10.572;2023-11-19T04:50:12;0.37;;;0.20;;
40489;SDS011;26196;52.302;10.572;2023-11-19T04:54:13;0.40;;;0.10;;
40489;SDS011;26196;52.302;10.572;2023-11-19T04:58:14;0.10;;;0.10;;
40489;SDS011;26196;52.302;10.572;2023-11-19T05:02:14;0.30;;;0.20;;
40489;SDS011;26196;52.302;10.572;2023-11-19T05:06:15;0.10;;;0.10;;
40489;SDS011;26196;52.302;10.572;2023-11-19T05:10:16;1.13;;;0.20;;
40489;SDS011;26196;52.302;10.572;2023-11-19T05:14:16;0.15;;;0.10;;
40489;SDS011;26196;52.302;10.572;2023-11-19T05:18:18;0.93;;;0.20;;
40489;SDS011;26196;52.302;10.572;2023-11-19T05:22:19;0.20;;;0.10;;
40489;SDS011;26196;52.302;10.572;2023-11-19T05:26:21;1.02;;;0.20;;
40489;SDS011;26196;52.302;10.572;2023-11-19T05:30:22;0.22;;;0.20;;
40489;SDS011;26196;52.302;10.572;2023-11-19T05:34:23;0.50;;;0.30;;
40489;SDS011;26196;52.302;10.572;2023-11-19T05:38:23;0.22;;;0.20;;
40489;SDS011;26196;52.302;10.572;2023-11-19T05:42:23;0.85;;;0.30;;
40489;SDS011;26196;52.302;10.572;2023-11-19T05:46:24;0.20;;;0.15;;
40489;SDS011;26196;52.302;10.572;2023-11-19T05:50:27;0.20;;;0.15;;
40489;SDS011;26196;52.302;10.572;2023-11-19T05:54:27;0.20;;;0.20;;
40489;SDS011;26196;52.302;10.572;2023-11-19T05:58:27;0.63;;;0.40;;
40489;SDS011;26196;52.302;10.572;2023-11-19T06:02:32;0.40;;;0.28;;
40489;SDS011;26196;52.302;10.572;2023-11-19T06:06:33;0.20;;;0.15;;
40489;SDS011;26196;52.302;10.572;2023-11-19T06:10:34;0.30;;;0.20;;
40489;SDS011;26196;52.302;10.572;2023-11-19T06:14:34;0.43;;;0.20;;
40489;SDS011;26196;52.302;10.572;2023-11-19T06:18:35;0.60;;;0.43;;
40489;SDS011;26196;52.302;10.572;2023-11-19T06:22:36;0.28;;;0.20;;
40489;SDS011;26196;52.302;10.572;2023-11-19T06:26:37;0.77;;;0.20;;
40489;SDS011;26196;52.302;10.572;2023-11-19T06:30:37;0.10;;;0.10;;
40489;SDS011;26196;52.302;10.572;2023-11-19T06:34:37;0.50;;;0.30;;
40489;SDS011;26196;52.302;10.572;2023-11-19T06:38:38;0.32;;;0.17;;
40489;SDS011;26196;52.302;10.572;2023-11-19T06:42:38;0.30;;;0.20;;
40489;SDS011;26196;52.302;10.572;2023-11-19T06:46:39;0.77;;;0.25;;
40489;SDS011;26196;52.302;10.572;2023-11-19T06:50:40;1.73;;;0.20;;
40489;SDS011;26196;52.302;10.572;2023-11-19T06:54:40;0.60;;;0.20;;
40489;SDS011;26196;52.302;10.572;2023-11-19T06:58:40;0.40;;;0.30;;
40489;SDS011;26196;52.302;10.572;2023-11-19T07:02:41;1.60;;;0.30;;
40489;SDS011;26196;52.302;10.572;2023-11-19T07:06:43;2.05;;;0.22;;
40489;SDS011;26196;52.302;10.572;2023-11-19T07:10:43;1.17;;;0.30;;
40489;SDS011;26196;52.302;10.572;2023-11-19T07:14:43;1.00;;;0.50;;
40489;SDS011;26196;52.302;10.572;2023-11-19T07:18:44;0.85;;;0.40;;
40489;SDS011;26196;52.302;10.572;2023-11-19T07:22:44;0.40;;;0.30;;
40489;SDS011;26196;52.302;10.572;2023-11-19T07:26:47;0.50;;;0.30;;
40489;SDS011;26196;52.302;10.572;2023-11-19T07:30:48;1.70;;;0.20;;
40489;SDS011;26196;52.302;10.572;2023-11-19T07:34:48;1.00;;;0.30;;
40489;SDS011;26196;52.302;10.572;2023-11-19T07:38:48;1.50;;;0.40;;
40489;SDS011;26196;52.302;10.572;2023-11-19T07:42:50;0.70;;;0.40;;
40489;SDS011;26196;52.302;10.572;2023-11-19T07:46:51;1.38;;;0.28;;
40489;SDS011;26196;52.302;10.572;2023-11-19T07:50:54;0.73;;;0.40;;
40489;SDS011;26196;52.302;10.572;2023-11-19T07:54:54;1.73;;;0.30;;
40489;SDS011;26196;52.302;10.572;2023-11-19T07:58:55;1.23;;;0.30;;
40489;SDS011;26196;52.302;10.572;2023-11-19T08:02:55;1.95;;;0.45;;
40489;SDS011;26196;52.302;10.572;2023-11-19T08:06:56;3.05;;;0.50;;
40489;SDS011;26196;52.302;10.572;2023-11-19T08:10:56;1.98;;;0.50;;
40489;SDS011;26196;52.302;10.572;2023-11-19T08:14:57;0.60;;;0.50;;
40489;SDS011;26196;52.302;10.572;2023-11-19T08:18:58;2.25;;;0.82;;
40489;SDS011;26196;52.302;10.572;2023-11-19T08:22:59;5.63;;;1.45;;
40489;SDS011;26196;52.302;10.572;2023-11-19T08:26:59;4.45;;;1.10;;
40489;SDS011;26196;52.302;10.572;2023-11-19T08:31:00;3.42;;;1.55;;
40489;SDS011;26196;52.302;10.572;2023-11-19T08:35:00;6.30;;;1.58;;
40489;SDS011;26196;52.302;10.572;2023-11-19T08:39:01;4.68;;;0.93;;
40489;SDS011;26196;52.302;10.572;2023-11-19T08:43:01;5.05;;;1.35;;
40489;SDS011;26196;52.302;10.572;2023-11-19T08:47:01;5.57;;;1.55;;
40489;SDS011;26196;52.302;10.572;2023-11-19T08:51:02;4.63;;;1.35;;
40489;SDS011;26196;52.302;10.572;2023-11-19T08:55:03;7.80;;;1.80;;
40489;SDS011;26196;52.302;10.572;2023-11-19T08:59:05;5.90;;;1.67;;
40489;SDS011;26196;52.302;10.572;2023-11-19T09:03:06;6.85;;;1.92;;
40489;SDS011;26196;52.302;10.572;2023-11-19T09:07:06;5.13;;;1.80;;
40489;SDS011;26196;52.302;10.572;2023-11-19T09:11:08;7.88;;;1.70;;
40489;SDS011;26196;52.302;10.572;2023-11-19T09:15:09;10.15;;;2.05;;
40489;SDS011;26196;52.302;10.572;2023-11-19T09:19:10;12.77;;;2.15;;
40489;SDS011;26196;52.302;10.572;2023-11-19T09:23:11;7.38;;;1.70;;
40489;SDS011;26196;52.302;10.572;2023-11-19T09:27:12;5.57;;;1.45;;
40489;SDS011;26196;52.302;10.572;2023-11-19T09:31:13;4.90;;;1.55;;
40489;SDS011;26196;52.302;10.572;2023-11-19T09:35:14;6.82;;;2.08;;
40489;SDS011;26196;52.302;10.572;2023-11-19T09:39:16;6.55;;;2.08;;
40489;SDS011;26196;52.302;10.572;2023-11-19T09:43:17;5.05;;;1.65;;
40489;SDS011;26196;52.302;10.572;2023-11-19T09:47:18;6.32;;;1.83;;
40489;SDS011;26196;52.302;10.572;2023-11-19T09:51:20;13.43;;;4.25;;
40489;SDS011;26196;52.302;10.572;2023-11-19T09:55:21;9.20;;;2.05;;
40489;SDS011;26196;52.302;10.572;2023-11-19T09:59:21;5.70;;;1.85;;
40489;SDS011;26196;52.302;10.572;2023-11-19T10:03:22;7.03;;;1.70;;
40489;SDS011;26196;52.302;10.572;2023-11-19T10:07:23;7.43;;;1.90;;
40489;SDS011;26196;52.302;10.572;2023-11-19T10:11:25;10.75;;;2.20;;
40489;SDS011;26196;52.302;10.572;2023-11-19T10:15:25;11.57;;;2.30;;
40489;SDS011;26196;52.302;10.572;2023-11-19T10:19:26;10.02;;;1.98;;
40489;SDS011;26196;52.302;10.572;2023-11-19T10:23:27;11.98;;;2.63;;
40489;SDS011;26196;52.302;10.572;2023-11-19T10:27:28;10.48;;;2.92;;
40489;SDS011;26196;52.302;10.572;2023-11-19T10:31:28;16.40;;;3.83;;
40489;SDS011;26196;52.302;10.572;2023-11-19T10:35:29;10.10;;;2.70;;
40489;SDS011;26196;52.302;10.572;2023-11-19T10:43:54;11.10;;;2.88;;
40489;SDS011;26196;52.302;10.572;2023-11-19T10:47:54;13.48;;;2.83;;
40489;SDS011;26196;52.302;10.572;2023-11-19T10:51:55;13.00;;;2.83;;
40489;SDS011;26196;52.302;10.572;2023-11-19T10:55:57;16.30;;;4.60;;
40489;SDS011;26196;52.302;10.572;2023-11-19T11:00:00;14.32;;;3.30;;
40489;SDS011;26196;52.302;10.572;2023-11-19T11:04:03;15.57;;;3.10;;
40489;SDS011;26196;52.302;10.572;2023-11-19T11:08:06;20.73;;;3.30;;
40489;SDS011;26196;52.302;10.572;2023-11-19T11:12:07;14.00;;;2.90;;
40489;SDS011;26196;52.302;10.572;2023-11-19T11:16:09;13.00;;;2.60;;
40489;SDS011;26196;52.302;10.572;2023-11-19T11:20:11;12.52;;;3.15;;
40489;SDS011;26196;52.302;10.572;2023-11-19T11:37:18;14.02;;;3.22;;
40489;SDS011;26196;52.302;10.572;2023-11-19T11:41:26;13.57;;;2.58;;
40489;SDS011;26196;52.302;10.572;2023-11-19T11:45:36;14.30;;;2.90;;
40489;SDS011;26196;52.302;10.572;2023-11-19T11:49:39;15.68;;;2.55;;
40489;SDS011;26196;52.302;10.572;2023-11-19T11:53:41;11.00;;;3.00;;
40489;SDS011;26196;52.302;10.572;2023-11-19T11:57:41;12.32;;;2.60;;
40489;SDS011;26196;52.302;10.572;2023-11-19T12:01:56;7.80;;;2.00;;
40489;SDS011;26196;52.302;10.572;2023-11-19T12:05:58;11.93;;;2.30;;
40489;SDS011;26196;52.302;10.572;2023-11-19T12:10:05;11.43;;;2.25;;
40489;SDS011;26196;52.302;10.572;2023-11-19T12:14:07;12.48;;;2.90;;
40489;SDS011;26196;52.302;10.572;2023-11-19T12:18:08;8.73;;;2.65;;
40489;SDS011;26196;52.302;10.572;2023-11-19T12:22:11;15.73;;;2.58;;
40489;SDS011;26196;52.302;10.572;2023-11-19T12:30:42;9.98;;;2.85;;
40489;SDS011;26196;52.302;10.572;2023-11-19T12:34:44;12.05;;;3.47;;
40489;SDS011;26196;52.302;10.572;2023-11-19T12:38:45;16.40;;;2.80;;
40489;SDS011;26196;52.302;10.572;2023-11-19T12:42:46;10.07;;;2.15;;
40489;SDS011;26196;52.302;10.572;2023-11-19T12:46:58;11.43;;;3.15;;
40489;SDS011;26196;52.302;10.572;2023-11-19T12:51:03;19.17;;;3.10;;
40489;SDS011;26196;52.302;10.572;2023-11-19T12:55:04;12.52;;;2.35;;
40489;SDS011;26196;52.302;10.572;2023-11-19T12:59:12;12.35;;;3.30;;
40489;SDS011;26196;52.302;10.572;2023-11-19T13:03:13;11.13;;;3.20;;
40489;SDS011;26196;52.302;10.572;2023-11-19T13:11:30;17.98;;;3.03;;
40489;SDS011;26196;52.302;10.572;2023-11-19T13:15:34;12.10;;;3.38;;
40489;SDS011;26196;52.302;10.572;2023-11-19T13:19:35;15.60;;;3.63;;
40489;SDS011;26196;52.302;10.572;2023-11-19T13:23:35;14.35;;;2.47;;
40489;SDS011;26196;52.302;10.572;2023-11-19T13:27:36;19.23;;;5.03;;
40489;SDS011;26196;52.302;10.572;2023-11-19T13:31:36;11.47;;;3.40;;
40489;SDS011;26196;52.302;10.572;2023-11-19T13:35:37;8.55;;;2.25;;
40489;SDS011;26196;52.302;10.572;2023-11-19T13:39:41;27.98;;;2.55;;
40489;SDS011;26196;52.302;10.572;2023-11-19T13:43:42;14.60;;;3.35;;
40489;SDS011;26196;52.302;10.572;2023-11-19T13:47:43;11.33;;;2.80;;
40489;SDS011;26196;52.302;10.572;2023-11-19T13:51:44;9.82;;;2.58;;
40489;SDS011;26196;52.302;10.572;2023-11-19T13:55:45;11.38;;;2.40;;
40489;SDS011;26196;52.302;10.572;2023-11-19T13:59:45;10.48;;;2.78;;
40489;SDS011;26196;52.302;10.572;2023-11-19T14:03:46;11.10;;;2.90;;
40489;SDS011;26196;52.302;10.572;2023-11-19T14:07:46;16.45;;;2.65;;
40489;SDS011;26196;52.302;10.572;2023-11-19T14:11:51;10.07;;;2.00;;
40489;SDS011;26196;52.302;10.572;2023-11-19T14:15:52;8.23;;;2.00;;
40489;SDS011;26196;52.302;10.572;2023-11-19T14:19:52;12.48;;;2.90;;
40489;SDS011;26196;52.302;10.572;2023-11-19T14:23:52;16.27;;;3.05;;
40489;SDS011;26196;52.302;10.572;2023-11-19T14:27:53;9.55;;;2.88;;
40489;SDS011;26196;52.302;10.572;2023-11-19T14:31:53;11.15;;;3.03;;
40489;SDS011;26196;52.302;10.572;2023-11-19T14:35:54;12.48;;;4.43;;
40489;SDS011;26196;52.302;10.572;2023-11-19T14:39:54;13.80;;;4.35;;
40489;SDS011;26196;52.302;10.572;2023-11-19T14:43:54;14.88;;;4.82;;
40489;SDS011;26196;52.302;10.572;2023-11-19T14:47:55;12.77;;;4.40;;
40489;SDS011;26196;52.302;10.572;2023-11-19T14:51:55;16.55;;;4.00;;
40489;SDS011;26196;52.302;10.572;2023-11-19T14:55:56;15.48;;;3.83;;
40489;SDS011;26196;52.302;10.572;2023-11-19T14:59:56;11.25;;;3.42;;
40489;SDS011;26196;52.302;10.572;2023-11-19T15:03:57;15.35;;;4.68;;
40489;SDS011;26196;52.302;10.572;2023-11-19T15:07:57;14.95;;;4.15;;
40489;SDS011;26196;52.302;10.572;2023-11-19T15:11:57;14.10;;;3.83;;
40489;SDS011;26196;52.302;10.572;2023-11-19T15:15:59;14.40;;;4.50;;
40489;SDS011;26196;52.302;10.572;2023-11-19T15:20:00;13.18;;;4.18;;
40489;SDS011;26196;52.302;10.572;2023-11-19T15:24:00;14.97;;;3.73;;
40489;SDS011;26196;52.302;10.572;2023-11-19T15:28:04;13.65;;;5.28;;
40489;SDS011;26196;52.302;10.572;2023-11-19T15:32:05;9.88;;;3.97;;
40489;SDS011;26196;52.302;10.572;2023-11-19T15:36:07;12.07;;;3.20;;
40489;SDS011;26196;52.302;10.572;2023-11-19T15:40:08;10.38;;;2.97;;
40489;SDS011;26196;52.302;10.572;2023-11-19T15:44:09;13.40;;;3.78;;
40489;SDS011;26196;52.302;10.572;2023-11-19T15:48:09;10.27;;;2.65;;
40489;SDS011;26196;52.302;10.572;2023-11-19T15:52:13;11.65;;;3.97;;
40489;SDS011;26196;52.302;10.572;2023-11-19T15:56:14;9.05;;;2.67;;
40489;SDS011;26196;52.302;10.572;2023-11-19T16:00:15;16.50;;;3.75;;
40489;SDS011;26196;52.302;10.572;2023-11-19T16:04:17;11.88;;;2.95;;
40489;SDS011;26196;52.302;10.572;2023-11-19T16:08:17;15.90;;;4.22;;
40489;SDS011;26196;52.302;10.572;2023-11-19T16:12:17;14.30;;;3.95;;
40489;SDS011;26196;52.302;10.572;2023-11-19T16:16:18;16.55;;;4.18;;
40489;SDS011;26196;52.302;10.572;2023-11-19T16:20:18;9.75;;;2.97;;
40489;SDS011;26196;52.302;10.572;2023-11-19T16:24:19;11.32;;;3.00;;
40489;SDS011;26196;52.302;10.572;2023-11-19T16:28:19;15.95;;;3.47;;
40489;SDS011;26196;52.302;10.572;2023-11-19T16:32:19;15.40;;;3.85;;
40489;SDS011;26196;52.302;10.572;2023-11-19T16:36:20;11.90;;;3.23;;
40489;SDS011;26196;52.302;10.572;2023-11-19T16:40:20;11.93;;;3.08;;
40489;SDS011;26196;52.302;10.572;2023-11-19T16:44:21;10.87;;;2.60;;
40489;SDS011;26196;52.302;10.572;2023-11-19T16:48:21;13.10;;;3.70;;
40489;SDS011;26196;52.302;10.572;2023-11-19T16:52:21;11.03;;;3.30;;
40489;SDS011;26196;52.302;10.572;2023-11-19T16:56:22;13.80;;;3.20;;
40489;SDS011;26196;52.302;10.572;2023-11-19T17:00:22;12.45;;;2.90;;
40489;SDS011;26196;52.302;10.572;2023-11-19T17:04:23;12.07;;;2.67;;
40489;SDS011;26196;52.302;10.572;2023-11-19T17:08:24;10.30;;;2.88;;
40489;SDS011;26196;52.302;10.572;2023-11-19T17:12:25;8.95;;;2.40;;
40489;SDS011;26196;52.302;10.572;2023-11-19T17:16:25;9.07;;;3.67;;
40489;SDS011;26196;52.302;10.572;2023-11-19T17:20:26;12.75;;;4.10;;
40489;SDS011;26196;52.302;10.572;2023-11-19T17:24:29;12.50;;;3.10;;
40489;SDS011;26196;52.302;10.572;2023-11-19T17:28:29;17.67;;;4.30;;
40489;SDS011;26196;52.302;10.572;2023-11-19T17:32:30;9.15;;;4.85;;
40489;SDS011;26196;52.302;10.572;2023-11-19T17:36:34;9.23;;;3.50;;
40489;SDS011;26196;52.302;10.572;2023-11-19T17:40:34;11.57;;;4.28;;
40489;SDS011;26196;52.302;10.572;2023-11-19T17:44:34;7.78;;;3.63;;
40489;SDS011;26196;52.302;10.572;2023-11-19T17:48:35;17.50;;;4.47;;
40489;SDS011;26196;52.302;10.572;2023-11-19T17:52:36;13.25;;;4.32;;
40489;SDS011;26196;52.302;10.572;2023-11-19T17:56:36;10.40;;;4.10;;
40489;SDS011;26196;52.302;10.572;2023-11-19T18:00:39;11.57;;;4.70;;
40489;SDS011;26196;52.302;10.572;2023-11-19T18:04:39;15.48;;;4.93;;
40489;SDS011;26196;52.302;10.572;2023-11-19T18:08:40;10.07;;;4.03;;
40489;SDS011;26196;52.302;10.572;2023-11-19T18:12:40;12.00;;;4.10;;
40489;SDS011;26196;52.302;10.572;2023-11-19T18:16:41;12.02;;;4.43;;
40489;SDS011;26196;52.302;10.572;2023-11-19T18:20:43;13.70;;;4.63;;
40489;SDS011;26196;52.302;10.572;2023-11-19T18:24:44;9.13;;;3.38;;
40489;SDS011;26196;52.302;10.572;2023-11-19T18:28:44;9.57;;;3.60;;
40489;SDS011;26196;52.302;10.572;2023-11-19T18:32:46;11.65;;;3.42;;
40489;SDS011;26196;52.302;10.572;2023-11-19T18:36:47;9.68;;;3.33;;
40489;SDS011;26196;52.302;10.572;2023-11-19T18:40:48;6.97;;;3.20;;
40489;SDS011;26196;52.302;10.572;2023-11-19T18:44:48;6.95;;;3.33;;
40489;SDS011;26196;52.302;10.572;2023-11-19T18:48:48;8.90;;;3.65;;
40489;SDS011;26196;52.302;10.572;2023-11-19T18:52:49;8.52;;;3.47;;
40489;SDS011;26196;52.302;10.572;2023-11-19T18:56:49;7.32;;;2.88;;
40489;SDS011;26196;52.302;10.572;2023-11-19T19:00:52;9.82;;;3.53;;
40489;SDS011;26196;52.302;10.572;2023-11-19T19:04:54;10.07;;;3.33;;
40489;SDS011;26196;52.302;10.572;2023-11-19T19:08:54;11.43;;;3.33;;
40489;SDS011;26196;52.302;10.572;2023-11-19T19:12:55;5.83;;;2.20;;
40489;SDS011;26196;52.302;10.572;2023-11-19T19:16:55;8.10;;;2.67;;
40489;SDS011;26196;52.302;10.572;2023-11-19T19:20:56;5.22;;;2.40;;
40489;SDS011;26196;52.302;10.572;2023-11-19T19:24:56;7.90;;;2.70;;
40489;SDS011;26196;52.302;10.572;2023-11-19T19:28:57;9.23;;;2.50;;
40489;SDS011;26196;52.302;10.572;2023-11-19T19:32:58;8.77;;;3.10;;
40489;SDS011;26196;52.302;10.572;2023-11-19T19:36:58;6.25;;;2.22;;
40489;SDS011;26196;52.302;10.572;2023-11-19T19:40:58;4.47;;;2.00;;
40489;SDS011;26196;52.302;10.572;2023-11-19T19:45:04;3.35;;;1.73;;
40489;SDS011;26196;52.302;10.572;2023-11-19T19:49:12;7.88;;;2.67;;
40489;SDS011;26196;52.302;10.572;2023-11-19T19:53:13;8.75;;;2.10;;
40489;SDS011;26196;52.302;10.572;2023-11-19T19:57:13;4.88;;;1.80;;
40489;SDS011;26196;52.302;10.572;2023-11-19T20:01:13;9.95;;;2.67;;
40489;SDS011;26196;52.302;10.572;2023-11-19T20:05:15;6.65;;;1.80;;
40489;SDS011;26196;52.302;10.572;2023-11-19T20:09:15;6.63;;;1.98;;
40489;SDS011;26196;52.302;10.572;2023-11-19T20:13:16;8.48;;;2.17;;
40489;SDS011;26196;52.302;10.572;2023-11-19T20:17:17;8.90;;;2.53;;
40489;SDS011;26196;52.302;10.572;2023-11-19T20:21:19;8.88;;;3.63;;
40489;SDS011;26196;52.302;10.572;2023-11-19T20:25:19;9.27;;;2.47;;
40489;SDS011;26196;52.302;10.572;2023-11-19T20:29:20;11.77;;;2.20;;
40489;SDS011;26196;52.302;10.572;2023-11-19T20:33:20;7.15;;;2.75;;
40489;SDS011;26196;52.302;10.572;2023-11-19T20:37:20;10.77;;;2.28;;
40489;SDS011;26196;52.302;10.572;2023-11-19T20:41:21;10.75;;;2.83;;
40489;SDS011;26196;52.302;10.572;2023-11-19T20:45:21;12.57;;;2.95;;
40489;SDS011;26196;52.302;10.572;2023-11-19T20:49:22;7.53;;;2.72;;
40489;SDS011;26196;52.302;10.572;2023-11-19T20:53:22;9.30;;;2.00;;
40489;SDS011;26196;52.302;10.572;2023-11-19T20:57:22;8.02;;;1.83;;
40489;SDS011;26196;52.302;10.572;2023-11-19T21:01:23;7.03;;;1.70;;
40489;SDS011;26196;52.302;10.572;2023-11-19T21:05:23;7.30;;;1.63;;
40489;SDS011;26196;52.302;10.572;2023-11-19T21:09:24;6.85;;;2.20;;
40489;SDS011;26196;52.302;10.572;2023-11-19T21:13:24;7.20;;;1.67;;
40489;SDS011;26196;52.302;10.572;2023-11-19T21:17:26;11.05;;;3.67;;
40489;SDS011;26196;52.302;10.572;2023-11-19T21:21:26;3.88;;;1.77;;
40489;SDS011;26196;52.302;10.572;2023-11-19T21:25:26;3.78;;;2.20;;
40489;SDS011;26196;52.302;10.572;2023-11-19T21:29:27;4.53;;;1.85;;
40489;SDS011;26196;52.302;10.572;2023-11-19T21:33:27;7.63;;;2.20;;
40489;SDS011;26196;52.302;10.572;2023-11-19T21:37:28;4.88;;;2.10;;
40489;SDS011;26196;52.302;10.572;2023-11-19T21:41:28;4.33;;;1.30;;
40489;SDS011;26196;52.302;10.572;2023-11-19T21:45:28;7.47;;;1.70;;
40489;SDS011;26196;52.302;10.572;2023-11-19T21:49:29;6.17;;;3.10;;
40489;SDS011;26196;52.302;10.572;2023-11-19T21:53:29;4.75;;;1.80;;
40489;SDS011;26196;52.302;10.572;2023-11-19T21:57:29;3.15;;;1.50;;
40489;SDS011;26196;52.302;10.572;2023-11-19T22:01:30;5.07;;;1.85;;
40489;SDS011;26196;52.302;10.572;2023-11-19T22:05:30;6.57;;;1.50;;
40489;SDS011;26196;52.302;10.572;2023-11-19T22:09:30;4.82;;;1.45;;
40489;SDS011;26196;52.302;10.572;2023-11-19T22:13:31;4.00;;;1.60;;
40489;SDS011;26196;52.302;10.572;2023-11-19T22:17:32;4.32;;;1.30;;
40489;SDS011;26196;52.302;10.572;2023-11-19T22:21:33;6.40;;;1.60;;
40489;SDS011;26196;52.302;10.572;2023-11-19T22:25:33;3.47;;;1.23;;
40489;SDS011;26196;52.302;10.572;2023-11-19T22:29:33;3.10;;;1.13;;
40489;SDS011;26196;52.302;10.572;2023-11-19T22:33:34;4.20;;;1.10;;
40489;SDS011;26196;52.302;10.572;2023-11-19T22:37:35;5.63;;;1.27;;
40489;SDS011;26196;52.302;10.572;2023-11-19T22:41:35;5.75;;;1.80;;
40489;SDS011;26196;52.302;10.572;2023-11-19T22:45:35;2.63;;;1.08;;
40489;SDS011;26196;52.302;10.572;2023-11-19T22:49:36;2.93;;;1.20;;
40489;SDS011;26196;52.302;10.572;2023-11-19T22:53:36;3.72;;;1.15;;
40489;SDS011;26196;52.302;10.572;2023-11-19T22:57:36;3.83;;;1.17;;
40489;SDS011;26196;52.302;10.572;2023-11-19T23:01:37;2.20;;;0.77;;
40489;SDS011;26196;52.302;10.572;2023-11-19T23:05:37;1.87;;;1.10;;
40489;SDS011;26196;52.302;10.572;2023-11-19T23:09:37;3.57;;;1.53;;
40489;SDS011;26196;52.302;10.572;2023-11-19T23:13:40;3.83;;;0.90;;
40489;SDS011;26196;52.302;10.572;2023-11-19T23:17:41;2.38;;;0.77;;
40489;SDS011;26196;52.302;10.572;2023-11-19T23:21:42;2.03;;;0.68;;
40489;SDS011;26196;52.302;10.572;2023-11-19T23:25:44;3.55;;;1.13;;
40489;SDS011;26196;52.302;10.572;2023-11-19T23:29:44;1.40;;;0.80;;
40489;SDS011;26196;52.302;10.572;2023-11-19T23:33:44;1.50;;;0.90;;
40489;SDS011;26196;52.302;10.572;2023-11-19T23:37:45;2.33;;;1.03;;
40489;SDS011;26196;52.302;10.572;2023-11-19T23:41:46;2.22;;;0.40;;
40489;SDS011;26196;52.302;10.572;2023-11-19T23:45:47;1.35;;;0.68;;
40489;SDS011;26196;52.302;10.572;2023-11-19T23:49:47;1.20;;;0.55;;
40489;SDS011;26196;52.302;10.572;2023-11-19T23:53:48;1.63;;;0.73;;
40489;SDS011;26196;52.302;10.572;2023-11-19T23:57:48;2.05;;;0.60;;
